createdAt,value
2023-04-24T00:02:07.935Z,97493.75
2023-04-24T00:04:46.311Z,97489.81
2023-04-24T00:07:18.355Z,97482.50
2023-04-24T00:09:51.869Z,97491.84
2023-04-24T00:12:23.841Z,97488.56
2023-04-24T00:14:56.574Z,97493.91
2023-04-24T00:17:29.425Z,97498.47
2023-04-24T00:20:03.161Z,97505.00
2023-04-24T00:22:35.144Z,97501.06
2023-04-24T00:25:08.399Z,97506.38
2023-04-24T00:27:40.528Z,97499.13
2023-04-24T00:30:13.378Z,97494.53
2023-04-24T00:32:45.328Z,97501.09
2023-04-24T00:35:18.107Z,97514.97
2023-04-24T00:37:51.219Z,97510.44
2023-04-24T00:40:23.588Z,97490.66
2023-04-24T00:42:55.944Z,97504.59
2023-04-24T00:45:27.964Z,97507.84
2023-04-24T00:48:02.601Z,97508.00
2023-04-24T00:50:37.578Z,97510.00
2023-04-24T00:53:09.514Z,97516.06
2023-04-24T00:55:42.332Z,97507.53
2023-04-24T00:58:14.369Z,97502.94
2023-04-24T01:00:47.617Z,97507.50
2023-04-24T01:03:23.736Z,97499.63
2023-04-24T01:05:57.119Z,97506.91
2023-04-24T01:08:30.668Z,97487.78
2023-04-24T01:11:06.099Z,97483.22
2023-04-24T01:13:38.111Z,97487.22
2023-04-24T01:16:11.595Z,97483.25
2023-04-24T01:18:43.572Z,97493.22
2023-04-24T01:21:17.985Z,97484.56
2023-04-24T01:23:50.088Z,97485.22
2023-04-24T01:26:26.831Z,97474.56
2023-04-24T01:28:59.256Z,97475.97
2023-04-24T01:31:32.708Z,97466.00
2023-04-24T01:34:05.292Z,97464.09
2023-04-24T01:36:39.210Z,97478.00
2023-04-24T01:39:12.901Z,97460.81
2023-04-24T01:41:45.326Z,97460.28
2023-04-24T01:44:18.563Z,97467.56
2023-04-24T01:46:51.895Z,97474.28
2023-04-24T01:49:24.438Z,97471.69
2023-04-24T01:51:57.811Z,97475.09
2023-04-24T01:54:29.740Z,97467.91
2023-04-24T02:00:06.030Z,97472.41
2023-04-24T02:02:48.181Z,97472.47
2023-04-24T02:05:21.745Z,97485.78
2023-04-24T02:07:53.936Z,97481.81
2023-04-24T02:10:26.351Z,97477.81
2023-04-24T02:13:00.929Z,97481.66
2023-04-24T02:15:33.319Z,97479.69
2023-04-24T02:18:08.075Z,97465.81
2023-04-24T02:20:40.339Z,97476.53
2023-04-24T02:23:14.572Z,97477.28
2023-04-24T02:25:46.703Z,97474.81
2023-04-24T02:28:19.244Z,97475.56
2023-04-24T02:30:51.943Z,97474.97
2023-04-24T02:33:28.591Z,97488.16
2023-04-24T02:36:00.661Z,97471.75
2023-04-24T02:38:33.955Z,97464.50
2023-04-24T02:41:07.271Z,97479.03
2023-04-24T02:43:40.292Z,97486.16
2023-04-24T02:46:12.828Z,97484.16
2023-04-24T02:48:45.406Z,97487.38
2023-04-24T02:51:17.669Z,97497.25
2023-04-24T02:53:50.214Z,97505.78
2023-04-24T02:56:22.234Z,97506.38
2023-04-24T02:58:54.803Z,97497.09
2023-04-24T03:01:27.229Z,97486.56
2023-04-24T03:04:00.492Z,97477.34
2023-04-24T03:06:33.808Z,97479.34
2023-04-24T03:09:06.543Z,97484.59
2023-04-24T03:11:38.456Z,97479.28
2023-04-24T03:14:14.492Z,97481.28
2023-04-24T03:16:46.833Z,97512.94
2023-04-24T03:19:19.459Z,97497.81
2023-04-24T03:22:05.775Z,97498.47
2023-04-24T03:24:39.516Z,97495.88
2023-04-24T03:27:11.870Z,97497.22
2023-04-24T03:30:00.381Z,97499.25
2023-04-24T03:32:52.996Z,97494.06
2023-04-24T03:35:30.532Z,97495.53
2023-04-24T03:38:06.540Z,97504.78
2023-04-24T03:40:48.312Z,97501.69
2023-04-24T03:43:35.548Z,97497.13
2023-04-24T03:46:10.689Z,97501.75
2023-04-24T03:48:47.678Z,97505.00
2023-04-24T03:51:23.573Z,97510.25
2023-04-24T03:53:58.824Z,97519.50
2023-04-24T03:56:34.975Z,97526.72
2023-04-24T03:59:07.443Z,97560.38
2023-04-24T04:01:44.006Z,97530.72
2023-04-24T04:04:20.049Z,97532.63
2023-04-24T04:06:53.567Z,97537.97
2023-04-24T04:09:26.383Z,97550.53
2023-04-24T04:11:59.434Z,97553.88
2023-04-24T04:14:31.841Z,97550.00
2023-04-24T04:17:04.486Z,97558.56
2023-04-24T04:19:37.193Z,97568.56
2023-04-24T04:22:09.818Z,97583.72
2023-04-24T04:24:47.566Z,97583.03
2023-04-24T04:27:22.176Z,97588.94
2023-04-24T04:30:06.010Z,97579.72
2023-04-24T04:32:46.323Z,97577.09
2023-04-24T04:35:19.615Z,97600.13
2023-04-24T04:37:52.455Z,97591.53
2023-04-24T04:40:45.906Z,97586.94
2023-04-24T04:43:18.283Z,97592.84
2023-04-24T04:45:57.350Z,97606.03
2023-04-24T04:48:35.378Z,97602.75
2023-04-24T04:51:11.064Z,97597.47
2023-04-24T04:53:43.482Z,97596.84
2023-04-24T04:56:16.166Z,97610.69
2023-04-24T04:58:51.267Z,97610.00
2023-04-24T05:01:25.780Z,97609.41
2023-04-24T05:03:58.478Z,97605.41
2023-04-24T05:06:32.791Z,97611.97
2023-04-24T05:09:05.795Z,97611.97
2023-04-24T05:11:44.783Z,97619.16
2023-04-24T05:14:19.229Z,97622.38
2023-04-24T05:16:51.871Z,97637.00
2023-04-24T05:19:26.696Z,97639.06
2023-04-24T05:21:58.998Z,97639.72
2023-04-24T05:24:32.474Z,97646.97
2023-04-24T05:27:08.078Z,97658.22
2023-04-24T05:29:45.519Z,97649.81
2023-04-24T05:32:17.683Z,97664.34
2023-04-24T05:34:51.469Z,97661.75
2023-04-24T05:37:23.477Z,97659.22
2023-04-24T05:39:56.084Z,97667.13
2023-04-24T05:42:29.109Z,97674.41
2023-04-24T05:45:03.353Z,97662.53
2023-04-24T05:47:35.332Z,97668.47
2023-04-24T05:50:08.657Z,97671.84
2023-04-24T05:52:40.571Z,97692.91
2023-04-24T05:55:27.201Z,97692.19
2023-04-24T05:58:00.261Z,97698.75
2023-04-24T06:00:33.975Z,97704.03
2023-04-24T06:03:11.748Z,97712.69
2023-04-24T06:05:44.433Z,97709.44
2023-04-24T06:08:16.632Z,97707.41
2023-04-24T06:10:51.088Z,97707.38
2023-04-24T06:13:25.520Z,97709.88
2023-04-24T06:16:17.774Z,97712.97
2023-04-24T06:18:56.745Z,97709.75
2023-04-24T06:21:28.902Z,97718.16
2023-04-24T06:24:01.757Z,97721.44
2023-04-24T06:26:33.692Z,97721.56
2023-04-24T06:29:06.824Z,97722.94
2023-04-24T06:31:38.845Z,97727.56
2023-04-24T06:34:11.459Z,97742.84
2023-04-24T06:36:43.454Z,97742.84
2023-04-24T06:39:16.072Z,97747.50
2023-04-24T06:41:47.995Z,97750.19
2023-04-24T06:44:26.278Z,97747.50
2023-04-24T06:46:58.416Z,97752.09
2023-04-24T06:49:31.346Z,97756.75
2023-04-24T06:52:03.896Z,97760.06
2023-04-24T06:54:36.494Z,97766.63
2023-04-24T06:57:09.329Z,97759.50
2023-04-24T06:59:41.888Z,97769.38
2023-04-24T07:02:14.002Z,97783.81
2023-04-24T07:04:48.868Z,97778.47
2023-04-24T07:07:20.803Z,97769.75
2023-04-24T07:09:55.064Z,97776.19
2023-04-24T07:12:27.308Z,97786.66
2023-04-24T07:15:00.290Z,97785.03
2023-04-24T07:17:32.334Z,97792.72
2023-04-24T07:20:05.406Z,97791.44
2023-04-24T07:22:39.248Z,97797.06
2023-04-24T07:25:12.288Z,97796.56
2023-04-24T07:27:44.382Z,97794.41
2023-04-24T07:30:16.749Z,97805.63
2023-04-24T07:32:49.032Z,97798.84
2023-04-24T07:35:22.242Z,97792.78
2023-04-24T07:37:55.196Z,97803.16
2023-04-24T07:40:27.517Z,97796.81
2023-04-24T07:43:00.438Z,97803.22
2023-04-24T07:45:34.573Z,97797.53
2023-04-24T07:48:07.519Z,97802.97
2023-04-24T07:50:39.463Z,97808.47
2023-04-24T07:53:12.239Z,97818.38
2023-04-24T07:55:44.344Z,97832.31
2023-04-24T07:58:16.939Z,97835.56
2023-04-24T08:00:48.909Z,97838.56
2023-04-24T08:03:21.824Z,97835.78
2023-04-24T08:05:54.082Z,97842.03
2023-04-24T08:08:26.876Z,97843.69
2023-04-24T08:10:58.878Z,97851.03
2023-04-24T08:13:31.162Z,97859.97
2023-04-24T08:16:03.157Z,97861.69
2023-04-24T08:18:37.257Z,97866.75
2023-04-24T08:21:09.258Z,97856.22
2023-04-24T08:23:42.001Z,97857.50
2023-04-24T08:26:14.496Z,97866.22
2023-04-24T08:28:46.810Z,97880.94
2023-04-24T08:31:19.286Z,97877.75
2023-04-24T08:33:51.858Z,97887.34
2023-04-24T08:36:28.238Z,97887.28
2023-04-24T08:39:06.090Z,97881.50
2023-04-24T08:41:39.018Z,97877.28
2023-04-24T08:44:12.170Z,97886.56
2023-04-24T08:46:46.953Z,97876.97
2023-04-24T08:49:20.331Z,97896.78
2023-04-24T08:51:53.844Z,97896.47
2023-04-24T08:54:26.861Z,97879.63
2023-04-24T08:57:04.864Z,97890.16
2023-04-24T08:59:37.277Z,97888.38
2023-04-24T09:02:12.969Z,97895.41
2023-04-24T09:04:47.230Z,97888.59
2023-04-24T09:07:23.723Z,97899.47
2023-04-24T09:09:55.966Z,97900.06
2023-04-24T09:12:28.652Z,97910.66
2023-04-24T09:15:01.628Z,97893.94
2023-04-24T09:17:35.647Z,97910.84
2023-04-24T09:20:08.536Z,97910.94
2023-04-24T09:22:41.357Z,97926.03
2023-04-24T09:25:13.736Z,97922.63
2023-04-24T09:27:47.281Z,97924.69
2023-04-24T09:30:23.909Z,97915.44
2023-04-24T09:33:16.936Z,97920.50
2023-04-24T09:35:52.924Z,97930.41
2023-04-24T09:38:38.535Z,97932.72
2023-04-24T09:41:14.952Z,97942.91
2023-04-24T09:43:47.577Z,97942.59
2023-04-24T09:46:20.131Z,97951.28
2023-04-24T09:48:52.449Z,97943.22
2023-04-24T09:51:37.527Z,97940.38
2023-04-24T09:54:38.186Z,97956.13
2023-04-24T09:57:11.029Z,97947.41
2023-04-24T09:59:47.772Z,97951.91
2023-04-24T10:02:21.859Z,97957.50
2023-04-24T10:05:00.334Z,97951.56
2023-04-24T10:10:29.537Z,97945.34
2023-04-24T10:13:03.104Z,97939.16
2023-04-24T10:16:00.146Z,97936.88
2023-04-24T10:18:36.668Z,97946.34
2023-04-24T10:21:09.446Z,97941.78
2023-04-24T10:23:43.288Z,97946.66
2023-04-24T10:26:19.473Z,97949.59
2023-04-24T10:28:51.706Z,97953.59
2023-04-24T10:31:29.278Z,97947.59
2023-04-24T10:34:04.372Z,97940.97
2023-04-24T10:36:46.998Z,97951.25
2023-04-24T10:39:27.696Z,97946.22
2023-04-24T10:42:00.118Z,97951.56
2023-04-24T10:44:39.766Z,97969.09
2023-04-24T10:47:16.864Z,97955.91
2023-04-24T10:49:52.844Z,97962.50
2023-04-24T10:55:48.021Z,97974.97
2023-04-24T10:58:37.196Z,97971.88
2023-04-24T11:01:11.522Z,97970.69
2023-04-24T11:03:57.271Z,97973.25
2023-04-24T11:06:54.449Z,98003.88
2023-04-24T11:09:32.327Z,97987.31
2023-04-24T11:12:08.560Z,97996.97
2023-04-24T11:15:03.306Z,97997.81
2023-04-24T11:17:58.190Z,98001.66
2023-04-24T11:20:31.765Z,98002.22
2023-04-24T11:23:06.485Z,97999.41
2023-04-24T11:25:38.465Z,98006.66
2023-04-24T11:28:17.955Z,98001.03
2023-04-24T11:30:50.511Z,98003.03
2023-04-24T11:33:25.293Z,97996.47
2023-04-24T11:35:57.403Z,97994.66
2023-04-24T11:38:30.952Z,97991.41
2023-04-24T11:41:04.262Z,97986.94
2023-04-24T11:43:37.930Z,97985.19
2023-04-24T11:46:10.150Z,97981.09
2023-04-24T11:48:47.577Z,97989.38
2023-04-24T11:51:19.480Z,97985.63
2023-04-24T11:54:01.488Z,97974.63
2023-04-24T11:56:37.339Z,97983.22
2023-04-24T11:59:09.699Z,97952.91
2023-04-24T12:01:48.700Z,97968.41
2023-04-24T12:04:22.659Z,97962.63
2023-04-24T12:07:05.875Z,97954.94
2023-04-24T12:09:48.439Z,97965.53
2023-04-24T12:12:27.958Z,97956.56
2023-04-24T12:15:02.528Z,97964.78
2023-04-24T12:17:55.309Z,97966.31
2023-04-24T12:20:34.270Z,97963.78
2023-04-24T12:23:06.946Z,97958.34
2023-04-24T12:26:02.951Z,97953.81
2023-04-24T12:28:41.386Z,97965.28
2023-04-24T12:31:13.387Z,97959.00
2023-04-24T12:33:46.491Z,97965.63
2023-04-24T12:36:23.679Z,97961.69
2023-04-24T12:38:56.070Z,97959.97
2023-04-24T12:41:31.706Z,97944.56
2023-04-24T12:44:05.135Z,97960.47
2023-04-24T12:46:38.738Z,97951.06
2023-04-24T12:49:11.896Z,97951.72
2023-04-24T12:51:44.512Z,97952.38
2023-04-24T12:54:16.469Z,97956.78
2023-04-24T12:56:49.878Z,97949.72
2023-04-24T12:59:21.752Z,97951.13
2023-04-24T13:01:54.986Z,97946.50
2023-04-24T13:04:28.675Z,97946.75
2023-04-24T13:07:00.568Z,97937.00
2023-04-24T13:09:35.944Z,97940.75
2023-04-24T13:12:09.687Z,97934.59
2023-04-24T13:14:42.474Z,97927.78
2023-04-24T13:17:15.141Z,97935.03
2023-04-24T13:19:48.548Z,97928.72
2023-04-24T13:22:21.495Z,97935.00
2023-04-24T13:24:55.451Z,97921.16
2023-04-24T13:27:27.348Z,97929.63
2023-04-24T13:30:02.042Z,97927.75
2023-04-24T13:32:36.356Z,97931.63
2023-04-24T13:41:02.950Z,97925.41
2023-04-24T13:43:53.479Z,97913.53
2023-04-24T13:46:26.407Z,97919.44
2023-04-24T13:48:58.466Z,97917.25
2023-04-24T13:51:32.177Z,97922.16
2023-04-24T13:54:04.216Z,97915.91
2023-04-24T13:56:37.099Z,97913.19
2023-04-24T13:59:09.734Z,97910.94
2023-04-24T14:01:42.658Z,97908.47
2023-04-24T14:04:16.174Z,97919.28
2023-04-24T14:06:49.847Z,97923.81
2023-04-24T14:09:22.159Z,97916.44
2023-04-24T14:11:54.977Z,97907.56
2023-04-24T14:14:27.608Z,97908.81
2023-04-24T14:17:00.622Z,97910.59
2023-04-24T14:19:33.756Z,97907.75
2023-04-24T14:22:07.701Z,97918.97
2023-04-24T14:24:39.624Z,97909.00
2023-04-24T14:27:15.053Z,97925.22
2023-04-24T14:29:47.105Z,97922.25
2023-04-24T14:32:20.098Z,97921.03
2023-04-24T14:34:52.607Z,97932.09
2023-04-24T14:37:24.935Z,97933.75
2023-04-24T14:40:11.731Z,97933.59
2023-04-24T14:42:52.668Z,97935.09
2023-04-24T14:45:26.103Z,97919.06
2023-04-24T14:47:59.641Z,97929.22
2023-04-24T14:50:31.827Z,97919.63
2023-04-24T14:53:05.662Z,97912.34
2023-04-24T14:55:38.049Z,97916.09
2023-04-24T14:58:11.141Z,97907.66
2023-04-24T15:00:43.384Z,97902.72
2023-04-24T15:03:19.738Z,97921.47
2023-04-24T15:05:52.794Z,97908.00
2023-04-24T15:08:26.000Z,97910.06
2023-04-24T15:10:58.812Z,97911.19
2023-04-24T15:13:31.635Z,97913.22
2023-04-24T15:16:03.588Z,97913.91
2023-04-24T15:18:36.988Z,97910.28
2023-04-24T15:21:09.128Z,97913.53
2023-04-24T15:23:41.875Z,97911.06
2023-04-24T15:26:15.287Z,97903.63
2023-04-24T15:28:48.197Z,97916.09
2023-04-24T15:31:20.446Z,97914.09
2023-04-24T15:33:53.745Z,97918.94
2023-04-24T15:36:26.228Z,97916.75
2023-04-24T15:38:58.149Z,97910.78
2023-04-24T15:41:33.586Z,97911.91
2023-04-24T15:44:06.885Z,97919.09
2023-04-24T15:46:38.833Z,97903.50
2023-04-24T15:52:04.610Z,97911.50
2023-04-24T15:54:41.107Z,97907.34
2023-04-24T15:57:14.186Z,97910.06
2023-04-24T15:59:46.618Z,97907.09
2023-04-24T16:02:21.127Z,97906.38
2023-04-24T16:04:53.636Z,97914.16
2023-04-24T16:07:27.303Z,97912.34
2023-04-24T16:09:59.265Z,97917.22
2023-04-24T16:12:32.626Z,97921.31
2023-04-24T16:15:05.716Z,97927.13
2023-04-24T16:17:40.402Z,97928.97
2023-04-24T16:20:14.103Z,97936.63
2023-04-24T16:22:46.465Z,97923.34
2023-04-24T16:25:18.945Z,97927.72
2023-04-24T16:27:53.106Z,97930.69
2023-04-24T16:30:26.626Z,97922.16
2023-04-24T16:32:59.062Z,97923.53
2023-04-24T16:35:32.463Z,97927.25
2023-04-24T16:38:04.721Z,97925.31
2023-04-24T16:40:37.632Z,97921.47
2023-04-24T16:43:09.580Z,97924.63
2023-04-24T16:45:42.991Z,97929.25
2023-04-24T16:48:15.339Z,97928.53
2023-04-24T16:50:47.832Z,97923.16
2023-04-24T16:53:19.696Z,97926.56
2023-04-24T16:55:52.793Z,97928.47
2023-04-24T16:58:25.083Z,97933.94
2023-04-24T17:00:58.735Z,97925.38
2023-04-24T17:03:30.945Z,97919.38
2023-04-24T17:06:04.525Z,97916.09
2023-04-24T17:08:36.474Z,97921.50
2023-04-24T17:11:09.293Z,97923.50
2023-04-24T17:13:41.226Z,97926.25
2023-04-24T17:16:14.048Z,97918.19
2023-04-24T17:18:47.044Z,97921.63
2023-04-24T17:21:19.093Z,97911.72
2023-04-24T17:23:52.170Z,97917.63
2023-04-24T17:26:24.144Z,97915.00
2023-04-24T17:28:57.238Z,97909.81
2023-04-24T17:31:29.561Z,97915.19
2023-04-24T17:34:02.842Z,97923.78
2023-04-24T17:36:35.270Z,97919.06
2023-04-24T17:39:07.688Z,97920.38
2023-04-24T17:41:40.402Z,97925.88
2023-04-24T17:44:12.319Z,97927.88
2023-04-24T17:46:45.040Z,97920.56
2023-04-24T17:49:17.371Z,97919.25
2023-04-24T17:51:49.628Z,97917.81
2023-04-24T17:54:23.285Z,97920.56
2023-04-24T17:56:55.766Z,97925.25
2023-04-24T17:59:28.134Z,97918.72
2023-04-24T18:02:03.018Z,97921.44
2023-04-24T18:04:35.212Z,97925.41
2023-04-24T18:07:07.811Z,97929.34
2023-04-24T18:09:39.824Z,97922.03
2023-04-24T18:12:12.467Z,97920.81
2023-04-24T18:14:44.398Z,97922.28
2023-04-24T18:17:16.875Z,97923.63
2023-04-24T18:19:49.132Z,97921.59
2023-04-24T18:22:21.640Z,97925.53
2023-04-24T18:24:53.574Z,97924.25
2023-04-24T18:27:26.085Z,97926.94
2023-04-24T18:29:59.192Z,97932.91
2023-04-24T18:32:32.543Z,97933.63
2023-04-24T18:35:04.918Z,97934.94
2023-04-24T18:37:38.356Z,97943.41
2023-04-24T18:40:11.211Z,97930.38
2023-04-24T18:42:44.644Z,97938.97
2023-04-24T18:45:16.716Z,97934.38
2023-04-24T18:47:50.311Z,97940.31
2023-04-24T18:50:22.400Z,97942.94
2023-04-24T18:52:54.973Z,97944.25
2023-04-24T18:55:26.910Z,97946.28
2023-04-24T18:57:59.880Z,97950.91
2023-04-24T19:00:31.903Z,97952.25
2023-04-24T19:03:06.969Z,97954.25
2023-04-24T19:05:38.995Z,97952.34
2023-04-24T19:08:11.932Z,97968.19
2023-04-24T19:10:43.893Z,97967.50
2023-04-24T19:13:16.321Z,97954.88
2023-04-24T19:15:48.662Z,97952.22
2023-04-24T19:18:21.347Z,97959.50
2023-04-24T19:20:53.330Z,97965.56
2023-04-24T19:23:27.393Z,97969.50
2023-04-24T19:25:59.885Z,97962.09
2023-04-24T19:28:32.995Z,97966.19
2023-04-24T19:31:04.976Z,97969.56
2023-04-24T19:33:37.568Z,97970.84
2023-04-24T19:36:10.485Z,97965.56
2023-04-24T19:38:43.035Z,97972.16
2023-04-24T19:41:16.005Z,97970.16
2023-04-24T19:43:50.065Z,97972.22
2023-04-24T19:46:22.595Z,97973.53
2023-04-24T19:48:55.562Z,97978.09
2023-04-24T19:51:27.635Z,97975.50
2023-04-24T19:54:00.548Z,97966.94
2023-04-24T19:56:33.049Z,97974.28
2023-04-24T19:59:05.930Z,97970.31
2023-04-24T20:01:39.633Z,97966.38
2023-04-24T20:04:12.469Z,97967.69
2023-04-24T20:06:44.562Z,97965.75
2023-04-24T20:09:17.103Z,97965.69
2023-04-24T20:11:51.158Z,97961.13
2023-04-24T20:14:23.663Z,97967.75
2023-04-24T20:16:55.711Z,97964.44
2023-04-24T20:19:28.232Z,97957.78
2023-04-24T20:22:00.315Z,97970.38
2023-04-24T20:24:32.847Z,97955.28
2023-04-24T20:27:04.862Z,97961.88
2023-04-24T20:29:37.755Z,97967.16
2023-04-24T20:32:10.152Z,97968.50
2023-04-24T20:34:43.097Z,97960.59
2023-04-24T20:37:15.029Z,97966.53
2023-04-24T20:39:49.898Z,97957.28
2023-04-24T20:42:22.555Z,97958.00
2023-04-24T20:44:56.241Z,97961.34
2023-04-24T20:47:28.270Z,97959.31
2023-04-24T20:50:03.196Z,97956.00
2023-04-24T20:52:35.458Z,97958.69
2023-04-24T20:55:09.152Z,97956.69
2023-04-24T20:57:41.423Z,97952.75
2023-04-24T21:00:14.669Z,97952.75
2023-04-24T21:02:46.662Z,97949.47
2023-04-24T21:05:19.196Z,97944.84
2023-04-24T21:07:55.711Z,97951.44
2023-04-24T21:10:28.258Z,97940.88
2023-04-24T21:13:00.178Z,97945.50
2023-04-24T21:15:33.946Z,97935.06
2023-04-24T21:18:06.217Z,97932.38
2023-04-24T21:20:39.008Z,97931.06
2023-04-24T21:23:11.048Z,97941.63
2023-04-24T21:25:43.643Z,97937.69
2023-04-24T21:28:15.947Z,97931.78
2023-04-24T21:30:48.804Z,97925.84
2023-04-24T21:33:21.155Z,97930.47
2023-04-24T21:35:54.239Z,97924.53
2023-04-24T21:38:26.580Z,97923.91
2023-04-24T21:40:59.071Z,97913.38
2023-04-24T21:43:49.858Z,97914.69
2023-04-24T21:46:23.246Z,97904.75
2023-04-24T21:48:55.327Z,97907.41
2023-04-24T21:51:28.749Z,97912.69
2023-04-24T21:54:00.675Z,97905.44
2023-04-24T21:56:33.234Z,97903.50
2023-04-24T21:59:05.437Z,97914.69
2023-04-24T22:01:37.974Z,97904.84
2023-04-24T22:04:10.330Z,97907.50
2023-04-24T22:06:43.161Z,97900.91
2023-04-24T22:09:15.742Z,97910.19
2023-04-24T22:11:49.140Z,97911.53
2023-04-24T22:14:21.327Z,97910.91
2023-04-24T22:16:57.406Z,97903.72
2023-04-24T22:19:29.768Z,97909.00
2023-04-24T22:22:02.333Z,97905.75
2023-04-24T22:24:34.291Z,97917.66
2023-04-24T22:27:06.914Z,97916.38
2023-04-24T22:29:38.930Z,97911.75
2023-04-24T22:32:11.377Z,97905.22
2023-04-24T22:34:43.287Z,97903.25
2023-04-24T22:37:16.053Z,97909.19
2023-04-24T22:39:48.399Z,97886.78
2023-04-24T22:42:20.912Z,97897.97
2023-04-24T22:44:52.845Z,97905.88
2023-04-24T22:47:25.375Z,97888.75
2023-04-24T22:49:58.420Z,97889.41
2023-04-24T22:52:31.001Z,97881.50
2023-04-24T22:55:03.933Z,97893.97
2023-04-24T22:57:37.221Z,97892.03
2023-04-24T23:00:11.335Z,97886.72
2023-04-24T23:02:44.127Z,97888.03
2023-04-24T23:05:16.510Z,97887.38
2023-04-24T23:07:49.063Z,97887.41
2023-04-24T23:10:21.574Z,97890.69
2023-04-24T23:12:54.425Z,97891.38
2023-04-24T23:15:26.326Z,97889.34
2023-04-24T23:17:58.889Z,97892.69
2023-04-24T23:20:31.245Z,97880.22
2023-04-24T23:23:04.301Z,97879.53
2023-04-24T23:25:36.207Z,97871.00
2023-04-24T23:28:08.799Z,97869.03
2023-04-24T23:30:40.752Z,97871.69
2023-04-24T23:33:14.445Z,97873.69
2023-04-24T23:35:46.658Z,97871.72
2023-04-24T23:38:19.154Z,97862.50
2023-04-24T23:40:52.120Z,97869.72
2023-04-24T23:43:24.694Z,97858.53
2023-04-24T23:45:56.839Z,97854.59
2023-04-24T23:48:29.431Z,97865.13
2023-04-24T23:51:01.739Z,97865.78
2023-04-24T23:53:34.361Z,97875.00
2023-04-24T23:56:06.614Z,97873.03
2023-04-24T23:58:39.560Z,97867.75
